Time;durP1;ratioP1;P1;durP2;ratioP2;P2;SDS_P1;SDS_P2;PMS_P1;PMS_P2;Temp;Humidity;BMP_temperature;BMP_pressure;BME280_temperature;BME280_humidity;BME280_pressure;Samples;Min_cycle;Max_cycle;Signal;HPM_P1;HPM_P2
2020/12/13 00:01:56;;;;;;;47.50;20.90;;;3.80;99.90;;;;;;5056839;28;20257;-79
2020/12/13 00:04:21;;;;;;;40.93;19.13;;;3.80;99.90;;;;;;5056549;28;20176;-79
2020/12/13 00:06:47;;;;;;;40.00;19.77;;;3.80;99.90;;;;;;5055918;28;20171;-79
2020/12/13 00:09:13;;;;;;;44.80;18.57;;;3.80;99.90;;;;;;5056669;28;20189;-79
2020/12/13 00:11:39;;;;;;;40.20;17.63;;;3.80;99.90;;;;;;5074460;28;20182;-80
2020/12/13 00:14:04;;;;;;;40.33;18.33;;;3.70;99.90;;;;;;5056863;28;20175;-79
2020/12/13 00:16:30;;;;;;;44.07;20.03;;;3.80;99.90;;;;;;5055879;28;20547;-79
2020/12/13 00:18:56;;;;;;;43.50;17.90;;;3.70;99.90;;;;;;5055903;28;20182;-79
2020/12/13 00:21:26;;;;;;;38.27;17.67;;;3.80;99.90;;;;;;5056159;28;20355;-80
2020/12/13 00:23:52;;;;;;;41.23;17.80;;;3.70;99.90;;;;;;5056042;28;20171;-79
2020/12/13 00:26:18;;;;;;;39.47;17.87;;;3.70;99.90;;;;;;5054958;28;20233;-80
2020/12/13 00:28:43;;;;;;;38.70;17.10;;;3.70;99.90;;;;;;5073379;28;20167;-80
2020/12/13 00:31:13;;;;;;;41.53;17.27;;;3.70;99.90;;;;;;5055405;28;20174;-78
2020/12/13 00:33:39;;;;;;;39.40;18.27;;;3.70;99.90;;;;;;5055381;28;20308;-78
2020/12/13 00:36:04;;;;;;;39.87;16.50;;;3.80;99.90;;;;;;5054818;28;20741;-81
2020/12/13 00:38:30;;;;;;;39.73;18.30;;;3.80;99.90;;;;;;5055340;28;20193;-80
2020/12/13 00:40:55;;;;;;;37.27;16.23;;;3.80;99.90;;;;;;5072927;28;20245;-77
2020/12/13 00:43:21;;;;;;;37.17;16.07;;;3.70;99.90;;;;;;5055025;28;20633;-79
2020/12/13 00:45:46;;;;;;;36.33;16.63;;;3.80;99.90;;;;;;5054728;28;20584;-79
2020/12/13 00:48:12;;;;;;;39.03;17.73;;;3.80;99.90;;;;;;5055125;28;20214;-80
2020/12/13 00:50:38;;;;;;;40.17;15.43;;;3.80;99.90;;;;;;5055117;28;20544;-77
2020/12/13 00:53:08;;;;;;;40.97;17.47;;;3.80;99.90;;;;;;5055014;28;20183;-79
2020/12/13 00:55:34;;;;;;;44.53;19.43;;;3.80;99.90;;;;;;5054833;28;20191;-80
2020/12/13 00:57:59;;;;;;;35.90;16.93;;;3.70;99.90;;;;;;5054726;28;20183;-79
2020/12/13 01:00:26;;;;;;;36.10;15.63;;;3.80;99.90;;;;;;5054843;28;20218;-79
2020/12/13 01:02:52;;;;;;;39.07;17.93;;;3.80;99.90;;;;;;5072954;28;20167;-78
2020/12/13 01:05:19;;;;;;;37.07;16.17;;;3.80;99.90;;;;;;5054863;28;20198;-79
2020/12/13 01:07:44;;;;;;;39.40;17.27;;;3.80;99.90;;;;;;5072742;28;20167;-77
2020/12/13 01:10:10;;;;;;;40.97;18.07;;;3.80;99.90;;;;;;5054924;28;20186;-79
2020/12/13 01:12:36;;;;;;;41.03;17.23;;;3.80;99.90;;;;;;5054899;28;20179;-78
2020/12/13 01:15:04;;;;;;;36.53;17.00;;;3.70;99.90;;;;;;5054364;28;20336;-80
2020/12/13 01:17:30;;;;;;;31.43;15.13;;;3.70;99.90;;;;;;5053746;28;20556;-79
2020/12/13 01:19:55;;;;;;;39.80;17.90;;;3.70;99.90;;;;;;5054523;28;20203;-79
2020/12/13 01:22:23;;;;;;;38.23;16.60;;;3.70;99.90;;;;;;5072471;28;20213;-81
2020/12/13 01:24:48;;;;;;;34.80;16.97;;;3.70;99.90;;;;;;5054444;28;20226;-79
2020/12/13 01:27:14;;;;;;;43.73;17.80;;;3.70;99.90;;;;;;5072532;28;20182;-78
2020/12/13 01:29:39;;;;;;;37.93;16.03;;;3.70;99.90;;;;;;5054512;28;20664;-80
2020/12/13 01:32:05;;;;;;;36.30;17.10;;;3.80;99.90;;;;;;5054582;28;20171;-79
2020/12/13 01:34:30;;;;;;;35.00;15.33;;;3.80;99.90;;;;;;5054446;28;20186;-78
2020/12/13 01:36:56;;;;;;;38.90;15.67;;;3.90;99.90;;;;;;5054267;28;20172;-77
2020/12/13 01:39:21;;;;;;;35.97;15.53;;;3.80;99.90;;;;;;5072685;28;20657;-80
2020/12/13 01:41:47;;;;;;;35.67;15.67;;;3.80;99.90;;;;;;5054220;28;20209;-78
2020/12/13 01:44:12;;;;;;;35.27;15.30;;;3.90;99.90;;;;;;5072120;28;20174;-78
2020/12/13 01:46:38;;;;;;;32.17;14.37;;;3.80;99.90;;;;;;5054159;28;20185;-80
2020/12/13 01:49:08;;;;;;;38.30;16.53;;;3.80;99.90;;;;;;5054616;28;20175;-81
2020/12/13 01:51:52;;;;;;;39.97;17.00;;;3.80;99.90;;;;;;5054643;28;20652;-81
2020/12/13 01:54:19;;;;;;;37.10;15.17;;;3.80;99.90;;;;;;5054273;28;20206;-79
2020/12/13 01:56:48;;;;;;;30.17;13.57;;;3.90;99.90;;;;;;5053976;28;20186;-80
2020/12/13 01:59:17;;;;;;;36.03;15.27;;;3.90;99.90;;;;;;5054041;28;20182;-79
2020/12/13 02:01:47;;;;;;;33.53;15.43;;;3.90;99.90;;;;;;5054116;28;20211;-80
2020/12/13 02:04:18;;;;;;;37.47;15.63;;;3.90;99.90;;;;;;5071867;28;20171;-80
2020/12/13 02:06:52;;;;;;;36.90;16.70;;;3.90;99.90;;;;;;5053982;28;20179;-79
2020/12/13 02:09:19;;;;;;;37.70;17.20;;;3.90;99.90;;;;;;5054452;28;20175;-79
2020/12/13 02:11:45;;;;;;;36.13;15.33;;;3.90;99.90;;;;;;5054248;28;20178;-81
2020/12/13 02:14:10;;;;;;;34.00;15.20;;;3.90;99.90;;;;;;5054178;28;20531;-81
2020/12/13 02:16:36;;;;;;;33.53;14.50;;;3.90;99.90;;;;;;5053851;28;20192;-81
2020/12/13 02:19:02;;;;;;;33.63;14.80;;;3.90;99.90;;;;;;5054052;28;20548;-78
2020/12/13 02:21:28;;;;;;;38.50;16.63;;;3.90;99.90;;;;;;5054237;28;20298;-80
2020/12/13 02:23:53;;;;;;;34.00;16.27;;;3.90;99.90;;;;;;5053957;28;20238;-81
2020/12/13 02:26:19;;;;;;;34.73;16.33;;;3.90;99.90;;;;;;5053593;28;20280;-81
2020/12/13 02:28:44;;;;;;;39.43;16.67;;;3.90;99.90;;;;;;5054044;28;20175;-80
2020/12/13 02:31:10;;;;;;;36.97;14.83;;;3.90;99.90;;;;;;5056882;28;20590;-80
2020/12/13 02:33:36;;;;;;;33.97;16.00;;;3.90;99.90;;;;;;5057831;28;20186;-79
2020/12/13 02:36:02;;;;;;;32.43;14.20;;;4.00;99.90;;;;;;5057120;28;20198;-80
2020/12/13 02:38:28;;;;;;;36.20;16.10;;;4.00;99.90;;;;;;5057430;28;20183;-78
2020/12/13 02:40:54;;;;;;;32.63;14.53;;;4.00;99.90;;;;;;5057157;28;20205;-80
2020/12/13 02:43:20;;;;;;;31.67;14.33;;;4.00;99.90;;;;;;5057399;28;20186;-80
2020/12/13 02:45:45;;;;;;;33.00;13.93;;;4.00;99.90;;;;;;5056928;28;20199;-81
2020/12/13 02:48:11;;;;;;;37.37;16.27;;;4.00;99.90;;;;;;5057144;28;20621;-81
2020/12/13 02:50:38;;;;;;;35.17;15.73;;;3.90;99.90;;;;;;5057266;28;20193;-79
2020/12/13 02:53:04;;;;;;;31.70;13.73;;;3.90;99.90;;;;;;5075448;28;20508;-80
2020/12/13 02:55:30;;;;;;;32.33;14.77;;;4.00;99.90;;;;;;5056842;28;20253;-80
2020/12/13 02:57:55;;;;;;;32.03;15.17;;;4.00;99.90;;;;;;5057159;28;20216;-80
2020/12/13 03:00:21;;;;;;;33.23;13.70;;;3.90;99.90;;;;;;5056953;28;20533;-78
2020/12/13 03:02:46;;;;;;;33.07;13.50;;;4.00;99.90;;;;;;5057039;28;20229;-81
2020/12/13 03:05:11;;;;;;;32.67;15.33;;;4.00;99.90;;;;;;5056682;28;20201;-79
2020/12/13 03:07:37;;;;;;;28.70;14.13;;;3.90;99.90;;;;;;5074674;28;20212;-79
2020/12/13 03:10:03;;;;;;;28.80;13.07;;;4.00;99.90;;;;;;5057259;28;20198;-77
2020/12/13 03:12:29;;;;;;;36.33;15.93;;;4.00;99.90;;;;;;5056888;28;20174;-81
2020/12/13 03:14:54;;;;;;;34.70;15.10;;;4.10;99.90;;;;;;5056570;28;20195;-80
2020/12/13 03:17:21;;;;;;;38.20;16.67;;;4.10;99.90;;;;;;5074087;28;20745;-79
2020/12/13 03:19:46;;;;;;;31.33;14.57;;;4.10;99.90;;;;;;5056686;28;20183;-81
2020/12/13 03:22:12;;;;;;;32.87;15.23;;;4.10;99.90;;;;;;5056885;28;20179;-81
2020/12/13 03:24:38;;;;;;;30.83;15.03;;;4.10;99.90;;;;;;5056611;28;20199;-79
2020/12/13 03:27:03;;;;;;;33.10;14.37;;;4.10;99.90;;;;;;5056623;28;20171;-80
2020/12/13 03:29:29;;;;;;;31.90;15.63;;;4.10;99.90;;;;;;5056493;28;20256;-81
2020/12/13 03:31:54;;;;;;;34.17;14.47;;;4.10;99.90;;;;;;5056695;28;20175;-81
2020/12/13 03:34:20;;;;;;;33.00;15.93;;;4.10;99.90;;;;;;5056175;28;20175;-80
2020/12/13 03:36:46;;;;;;;34.30;15.37;;;4.10;99.90;;;;;;5056182;28;20209;-79
2020/12/13 03:39:11;;;;;;;38.57;16.80;;;4.00;99.90;;;;;;5056286;28;20617;-80
2020/12/13 03:41:37;;;;;;;28.37;13.90;;;4.00;99.90;;;;;;5074042;28;20206;-80
2020/12/13 03:44:02;;;;;;;34.13;15.27;;;4.00;99.90;;;;;;5056359;28;20550;-79
2020/12/13 03:46:28;;;;;;;35.77;14.50;;;4.00;99.90;;;;;;5055842;28;20226;-81
2020/12/13 03:48:53;;;;;;;33.77;15.07;;;4.00;99.90;;;;;;5056570;28;20186;-81
2020/12/13 03:51:19;;;;;;;37.03;14.40;;;4.00;99.90;;;;;;5056158;28;20178;-81
2020/12/13 03:53:44;;;;;;;33.47;14.60;;;4.00;99.90;;;;;;5056159;28;20200;-80
2020/12/13 03:56:10;;;;;;;31.20;13.47;;;4.00;99.90;;;;;;5055861;28;20759;-80
2020/12/13 03:58:35;;;;;;;32.03;15.13;;;4.10;99.90;;;;;;5056207;28;20313;-81
2020/12/13 04:01:01;;;;;;;33.03;14.20;;;4.10;99.90;;;;;;5074062;28;20218;-80
2020/12/13 04:03:27;;;;;;;29.87;14.73;;;4.10;99.90;;;;;;5055964;28;20653;-81
2020/12/13 04:05:52;;;;;;;36.50;15.53;;;4.10;99.90;;;;;;5055546;28;20191;-81
2020/12/13 04:08:18;;;;;;;36.23;16.10;;;4.10;99.90;;;;;;5055693;28;20182;-81
2020/12/13 04:10:43;;;;;;;38.10;17.00;;;4.10;99.90;;;;;;5055800;28;20179;-82
2020/12/13 04:13:09;;;;;;;33.33;14.70;;;4.00;99.90;;;;;;5073710;28;20733;-81
2020/12/13 04:15:34;;;;;;;28.77;14.07;;;4.00;99.90;;;;;;5055427;28;20298;-80
2020/12/13 04:18:00;;;;;;;33.20;14.40;;;4.10;99.90;;;;;;5054808;28;20187;-80
2020/12/13 04:20:25;;;;;;;34.23;14.40;;;4.10;99.90;;;;;;5073346;28;20683;-81
2020/12/13 04:22:51;;;;;;;35.83;15.13;;;4.10;99.90;;;;;;5055645;28;20201;-79
2020/12/13 04:25:16;;;;;;;31.70;14.23;;;4.10;99.90;;;;;;5073157;28;20191;-81
2020/12/13 04:27:42;;;;;;;27.73;14.00;;;4.10;99.90;;;;;;5055227;28;20175;-81
2020/12/13 04:30:08;;;;;;;37.47;17.63;;;4.10;99.90;;;;;;5055442;28;20261;-82
2020/12/13 04:32:34;;;;;;;32.13;14.53;;;4.10;99.90;;;;;;5055475;28;20236;-81
2020/12/13 04:34:59;;;;;;;31.40;14.10;;;4.10;99.90;;;;;;5055279;28;20672;-81
2020/12/13 04:37:25;;;;;;;31.80;14.23;;;4.10;99.90;;;;;;5054901;28;20202;-81
2020/12/13 04:39:52;;;;;;;31.47;13.63;;;4.10;99.90;;;;;;5055091;28;20766;-81
2020/12/13 04:42:18;;;;;;;32.67;15.40;;;4.10;99.90;;;;;;5055100;28;20166;-80
2020/12/13 04:44:45;;;;;;;28.40;13.40;;;4.20;99.90;;;;;;5054866;28;20195;-79
2020/12/13 04:47:10;;;;;;;30.20;14.53;;;4.10;99.90;;;;;;5054934;28;20767;-81
2020/12/13 04:49:36;;;;;;;29.40;13.60;;;4.20;99.90;;;;;;5054923;28;20262;-81
2020/12/13 04:52:03;;;;;;;35.37;15.13;;;4.20;99.90;;;;;;5072460;28;20517;-80
2020/12/13 04:54:30;;;;;;;32.83;14.20;;;4.20;99.90;;;;;;5054858;28;20631;-81
2020/12/13 04:56:58;;;;;;;30.23;13.93;;;4.20;99.90;;;;;;5072591;28;20304;-81
2020/12/13 04:59:25;;;;;;;30.90;13.80;;;4.20;99.90;;;;;;5055083;28;20175;-80
2020/12/13 05:01:52;;;;;;;32.40;14.40;;;4.20;99.90;;;;;;5055003;28;20198;-81
2020/12/13 05:04:17;;;;;;;32.60;13.57;;;4.30;99.90;;;;;;5054856;28;20596;-81
2020/12/13 05:06:44;;;;;;;30.87;14.77;;;4.20;99.90;;;;;;5054607;28;20252;-81
2020/12/13 05:09:12;;;;;;;31.10;13.33;;;4.30;99.90;;;;;;5054816;28;20179;-79
2020/12/13 05:11:45;;;;;;;33.97;14.33;;;4.30;99.90;;;;;;5054700;28;20242;-81
2020/12/13 05:14:11;;;;;;;31.23;14.73;;;4.30;99.90;;;;;;5054764;28;20220;-80
2020/12/13 05:16:37;;;;;;;33.33;14.93;;;4.30;99.90;;;;;;5054376;28;20649;-82
2020/12/13 05:19:06;;;;;;;33.93;14.97;;;4.20;99.90;;;;;;5054787;28;20183;-82
2020/12/13 05:21:32;;;;;;;33.67;14.37;;;4.30;99.90;;;;;;5054595;28;20207;-81
2020/12/13 05:24:00;;;;;;;30.47;13.60;;;4.20;99.90;;;;;;5054412;28;20202;-79
2020/12/13 05:26:26;;;;;;;33.40;13.67;;;4.30;99.90;;;;;;5054013;28;20191;-81
2020/12/13 05:28:53;;;;;;;33.40;14.07;;;4.20;99.90;;;;;;5072625;28;20197;-81
2020/12/13 05:31:27;;;;;;;31.23;14.67;;;4.30;99.90;;;;;;5054387;28;20179;-79
2020/12/13 05:34:02;;;;;;;28.53;13.23;;;4.30;99.90;;;;;;5072797;28;20254;-81
2020/12/13 05:36:30;;;;;;;30.00;14.00;;;4.30;99.90;;;;;;5072022;28;20218;-79
2020/12/13 05:38:58;;;;;;;27.43;12.47;;;4.30;99.90;;;;;;5054656;28;20270;-79
2020/12/13 05:41:29;;;;;;;27.60;12.57;;;4.30;99.90;;;;;;5054561;28;20203;-80
2020/12/13 05:44:04;;;;;;;28.77;12.50;;;4.30;99.90;;;;;;5054480;28;20635;-81
2020/12/13 05:49:31;;;;;;;24.67;10.90;;;4.30;99.90;;;;;;5072491;28;20166;-82
2020/12/13 05:51:58;;;;;;;23.40;11.60;;;4.30;99.90;;;;;;5054625;28;20245;-79
2020/12/13 05:54:25;;;;;;;26.20;11.77;;;4.30;99.90;;;;;;5054412;28;20175;-78
2020/12/13 05:57:02;;;;;;;23.30;11.27;;;4.30;99.90;;;;;;5054277;28;20175;-81
2020/12/13 05:59:29;;;;;;;22.27;11.37;;;4.30;99.90;;;;;;5054202;28;20236;-81
2020/12/13 06:01:57;;;;;;;22.90;11.87;;;4.30;99.90;;;;;;5054246;28;20210;-81
2020/12/13 06:04:31;;;;;;;24.40;11.97;;;4.30;99.90;;;;;;5072735;28;20229;-80
2020/12/13 06:07:05;;;;;;;25.30;10.73;;;4.40;99.90;;;;;;5075895;28;20174;-81
2020/12/13 06:09:40;;;;;;;27.77;13.30;;;4.40;99.90;;;;;;5058048;28;20177;-81
2020/12/13 06:12:11;;;;;;;29.47;12.87;;;4.40;99.90;;;;;;5058017;28;20273;-81
2020/12/13 06:14:37;;;;;;;26.13;11.00;;;4.40;99.90;;;;;;5057801;28;20226;-81
2020/12/13 06:17:03;;;;;;;27.90;12.03;;;4.40;99.90;;;;;;5075281;28;20263;-82
2020/12/13 06:19:33;;;;;;;23.57;11.97;;;4.40;99.90;;;;;;5054452;28;20184;-79
2020/12/13 06:22:01;;;;;;;27.90;12.97;;;4.40;99.90;;;;;;5071437;28;20210;-80
2020/12/13 06:24:27;;;;;;;23.20;10.97;;;4.30;99.90;;;;;;5058116;28;20266;-80
2020/12/13 06:26:54;;;;;;;23.63;10.97;;;4.30;99.90;;;;;;5055818;28;20174;-80
2020/12/13 06:29:21;;;;;;;28.40;12.67;;;4.30;99.90;;;;;;5058563;28;20227;-79
2020/12/13 06:31:47;;;;;;;23.67;11.43;;;4.20;99.90;;;;;;5062665;28;20202;-80
2020/12/13 06:34:13;;;;;;;26.10;13.03;;;4.30;99.90;;;;;;5077827;28;20636;-80
2020/12/13 06:36:40;;;;;;;27.33;12.80;;;4.20;99.90;;;;;;5096024;28;20182;-79
2020/12/13 06:39:12;;;;;;;24.80;11.70;;;4.20;99.90;;;;;;5068278;28;20222;-80
2020/12/13 06:41:38;;;;;;;25.03;12.33;;;4.10;99.90;;;;;;5047930;28;20222;-79
2020/12/13 06:44:06;;;;;;;26.23;12.87;;;4.10;99.90;;;;;;5048402;28;20202;-79
2020/12/13 06:46:34;;;;;;;25.03;12.77;;;4.10;99.90;;;;;;5057043;28;20677;-79
2020/12/13 06:48:59;;;;;;;26.47;12.93;;;4.10;99.90;;;;;;5039474;28;20689;-80
2020/12/13 06:51:28;;;;;;;26.77;12.10;;;4.00;99.90;;;;;;5055041;28;20206;-80
2020/12/13 06:53:54;;;;;;;25.03;12.07;;;4.00;99.90;;;;;;5037276;28;20175;-80
2020/12/13 06:56:21;;;;;;;26.57;12.60;;;3.90;99.90;;;;;;5037273;28;20226;-80
2020/12/13 06:58:55;;;;;;;25.47;11.43;;;3.90;99.90;;;;;;5037164;28;20180;-80
2020/12/13 07:01:24;;;;;;;25.10;10.57;;;3.90;99.90;;;;;;5074893;28;20203;-79
2020/12/13 07:03:50;;;;;;;26.33;12.23;;;3.90;99.90;;;;;;5044926;28;20179;-80
2020/12/13 07:06:25;;;;;;;25.10;12.10;;;3.90;99.90;;;;;;5036566;28;20602;-79
2020/12/13 07:09:01;;;;;;;25.27;11.47;;;4.00;99.90;;;;;;5037035;28;20182;-80
2020/12/13 07:11:29;;;;;;;26.27;12.77;;;4.00;99.90;;;;;;5037235;28;20183;-80
2020/12/13 07:14:13;;;;;;;27.13;12.57;;;4.00;99.90;;;;;;5037028;28;20176;-80
2020/12/13 07:16:43;;;;;;;24.57;11.83;;;4.00;99.90;;;;;;5036476;28;20602;-81
2020/12/13 07:19:11;;;;;;;25.90;12.80;;;4.00;99.90;;;;;;5037517;28;20187;-80
2020/12/13 07:21:38;;;;;;;26.80;12.20;;;4.00;99.90;;;;;;5036858;28;20290;-81
2020/12/13 07:24:04;;;;;;;27.00;11.80;;;4.00;99.90;;;;;;5037372;28;20302;-80
2020/12/13 07:26:33;;;;;;;21.70;11.13;;;4.00;99.90;;;;;;5037094;28;20196;-82
2020/12/13 07:29:00;;;;;;;29.30;13.13;;;4.00;99.90;;;;;;5036962;28;20175;-80
2020/12/13 07:31:35;;;;;;;26.83;13.07;;;4.00;99.90;;;;;;5036940;28;20176;-80
2020/12/13 07:34:02;;;;;;;27.47;12.23;;;4.00;99.90;;;;;;5054967;28;20218;-81
2020/12/13 07:36:27;;;;;;;26.27;11.63;;;4.00;99.90;;;;;;5074639;28;20241;-80
2020/12/13 07:38:53;;;;;;;26.17;12.50;;;4.00;99.90;;;;;;5056725;28;20264;-80
2020/12/13 07:41:20;;;;;;;23.40;11.23;;;4.00;99.90;;;;;;5056831;28;20191;-80
2020/12/13 07:43:54;;;;;;;27.27;12.30;;;4.00;99.90;;;;;;5056979;28;20198;-80
2020/12/13 07:46:23;;;;;;;23.93;11.50;;;4.00;99.90;;;;;;5056381;28;20195;-80
2020/12/13 07:48:59;;;;;;;27.80;13.10;;;4.00;99.90;;;;;;5056820;28;20167;-80
2020/12/13 07:51:25;;;;;;;28.57;12.90;;;4.10;99.90;;;;;;5056764;28;20175;-80
2020/12/13 07:53:50;;;;;;;28.70;13.30;;;4.00;99.90;;;;;;5056491;28;20179;-80
2020/12/13 07:56:27;;;;;;;25.63;13.20;;;4.00;99.90;;;;;;5056462;28;20697;-80
2020/12/13 07:59:09;;;;;;;30.00;12.63;;;4.00;99.90;;;;;;5056460;28;20179;-79
2020/12/13 08:01:35;;;;;;;25.57;13.23;;;3.90;99.90;;;;;;5074489;28;20198;-80
2020/12/13 08:04:00;;;;;;;26.73;13.57;;;3.90;99.90;;;;;;5056354;28;20618;-80
2020/12/13 08:06:26;;;;;;;26.70;12.60;;;3.90;99.90;;;;;;5051212;28;20261;-80
2020/12/13 08:08:52;;;;;;;29.60;14.50;;;3.90;99.90;;;;;;5069004;28;20224;-80
2020/12/13 08:11:18;;;;;;;27.67;12.77;;;3.90;99.90;;;;;;5074372;28;20171;-80
2020/12/13 08:13:54;;;;;;;27.70;13.37;;;3.90;99.90;;;;;;5056053;28;20664;-80
2020/12/13 08:16:23;;;;;;;27.70;13.17;;;3.90;99.90;;;;;;5055592;28;20506;-80
2020/12/13 08:18:51;;;;;;;25.90;12.77;;;3.90;99.90;;;;;;5057526;28;20183;-79
2020/12/13 08:21:36;;;;;;;28.63;13.50;;;4.00;99.90;;;;;;5070958;28;20195;-80
2020/12/13 08:24:03;;;;;;;24.27;11.63;;;4.00;99.90;;;;;;5042974;28;20184;-80
2020/12/13 08:26:31;;;;;;;26.47;11.80;;;4.00;99.90;;;;;;5036127;28;20225;-80
2020/12/13 08:29:00;;;;;;;25.07;12.10;;;4.00;99.90;;;;;;5035526;28;20291;-81
2020/12/13 08:31:28;;;;;;;28.53;12.97;;;4.00;99.90;;;;;;5035982;28;20266;-80
2020/12/13 08:34:05;;;;;;;32.47;14.03;;;3.90;99.90;;;;;;5042608;28;20187;-81
2020/12/13 08:36:32;;;;;;;28.80;13.53;;;3.90;99.90;;;;;;5035402;28;20211;-80
2020/12/13 08:39:03;;;;;;;28.10;13.50;;;3.90;99.90;;;;;;5035932;28;20249;-80
2020/12/13 08:41:28;;;;;;;30.30;14.03;;;3.90;99.90;;;;;;5035837;28;20199;-80
2020/12/13 08:43:54;;;;;;;33.27;14.47;;;3.90;99.90;;;;;;5044906;28;20282;-81
2020/12/13 08:46:37;;;;;;;28.27;12.77;;;3.90;99.90;;;;;;5055701;28;20291;-81
2020/12/13 08:49:03;;;;;;;29.30;13.23;;;3.80;99.90;;;;;;5055103;28;20189;-82
2020/12/13 08:51:29;;;;;;;30.97;13.57;;;3.90;99.90;;;;;;5055977;28;20541;-80
2020/12/13 08:53:59;;;;;;;33.13;14.53;;;3.90;99.90;;;;;;5051550;28;20267;-80
2020/12/13 08:56:36;;;;;;;33.30;13.53;;;3.80;99.90;;;;;;5061579;28;20204;-80
2020/12/13 08:59:03;;;;;;;27.37;13.23;;;3.80;99.90;;;;;;5050724;28;20671;-82
2020/12/13 09:01:40;;;;;;;26.10;12.23;;;3.80;99.90;;;;;;5055527;28;20232;-81
2020/12/13 09:04:23;;;;;;;27.97;13.20;;;3.90;99.90;;;;;;5054349;28;20206;-81
2020/12/13 09:06:53;;;;;;;27.80;13.50;;;4.00;99.90;;;;;;5035178;28;20516;-81
2020/12/13 09:09:20;;;;;;;28.77;14.33;;;4.00;99.90;;;;;;5045960;28;20213;-80
2020/12/13 09:11:45;;;;;;;28.43;13.63;;;3.90;99.90;;;;;;5037432;28;20232;-79
2020/12/13 09:14:11;;;;;;;28.73;13.80;;;3.90;99.90;;;;;;5035060;28;20666;-80
2020/12/13 09:16:36;;;;;;;29.00;13.67;;;4.00;99.90;;;;;;5065053;28;20203;-80
2020/12/13 09:19:10;;;;;;;32.60;14.90;;;4.00;99.90;;;;;;5044283;28;20260;-80
2020/12/13 09:21:42;;;;;;;30.13;13.03;;;3.90;99.90;;;;;;5042412;28;20203;-80
2020/12/13 09:24:08;;;;;;;32.50;13.77;;;3.90;99.90;;;;;;5045029;28;20560;-80
2020/12/13 09:26:34;;;;;;;28.60;13.77;;;3.90;99.90;;;;;;5064165;28;20275;-81
2020/12/13 09:28:59;;;;;;;31.03;14.10;;;3.90;99.90;;;;;;5034401;28;20630;-81
2020/12/13 09:31:24;;;;;;;29.77;13.30;;;3.90;99.90;;;;;;5052670;28;20550;-80
2020/12/13 09:33:50;;;;;;;28.40;14.10;;;4.00;99.90;;;;;;5058818;28;20221;-80
2020/12/13 09:36:15;;;;;;;29.27;13.67;;;4.10;99.90;;;;;;5056246;28;20199;-81
2020/12/13 09:38:41;;;;;;;28.07;12.97;;;4.10;99.90;;;;;;5035773;28;20176;-82
2020/12/13 09:41:06;;;;;;;29.27;13.57;;;4.00;99.90;;;;;;5044662;28;20218;-80
2020/12/13 09:43:32;;;;;;;27.43;12.30;;;4.00;99.90;;;;;;5045842;28;20186;-81
2020/12/13 09:45:57;;;;;;;29.93;14.30;;;4.10;99.90;;;;;;5056175;28;20645;-81
2020/12/13 09:48:23;;;;;;;29.17;13.67;;;4.10;99.90;;;;;;5060157;28;20202;-81
2020/12/13 09:50:48;;;;;;;28.17;11.87;;;4.10;99.90;;;;;;5049671;28;20708;-80
2020/12/13 09:53:14;;;;;;;30.73;12.67;;;4.00;99.90;;;;;;5074759;28;20171;-81
2020/12/13 09:55:39;;;;;;;30.43;13.17;;;4.00;99.90;;;;;;5038336;28;20252;-81
2020/12/13 09:58:05;;;;;;;31.80;13.57;;;4.00;99.90;;;;;;5055798;28;20187;-80
2020/12/13 10:00:30;;;;;;;28.40;13.00;;;4.00;99.90;;;;;;5038578;28;20692;-79
2020/12/13 10:02:56;;;;;;;29.90;12.97;;;3.90;99.90;;;;;;5072787;28;20616;-80
2020/12/13 10:05:37;;;;;;;30.33;13.33;;;4.00;99.90;;;;;;5052205;28;20226;-81
2020/12/13 10:10:48;;;;;;;30.97;13.17;;;4.10;99.90;;;;;;5069286;28;20198;-80
2020/12/13 10:13:29;;;;;;;30.37;12.37;;;4.10;99.90;;;;;;5040150;28;20198;-82
2020/12/13 10:15:55;;;;;;;26.07;11.57;;;4.10;99.90;;;;;;5051962;28;20238;-79
2020/12/13 10:18:20;;;;;;;31.80;13.73;;;4.10;99.90;;;;;;5050785;28;20628;-81
2020/12/13 10:20:59;;;;;;;29.27;13.17;;;4.00;99.90;;;;;;5050854;28;20199;-81
2020/12/13 10:23:25;;;;;;;24.27;11.17;;;4.00;99.90;;;;;;5047224;28;20182;-81
2020/12/13 10:25:50;;;;;;;31.93;12.90;;;4.00;99.90;;;;;;5043200;28;20665;-80
2020/12/13 10:28:16;;;;;;;30.20;13.00;;;4.10;99.90;;;;;;5038375;28;20187;-81
2020/12/13 10:30:41;;;;;;;31.40;13.60;;;4.10;99.90;;;;;;5046228;28;20176;-80
2020/12/13 10:33:11;;;;;;;27.47;13.17;;;4.10;99.90;;;;;;5040875;28;20180;-80
2020/12/13 10:35:43;;;;;;;30.90;12.73;;;4.00;99.90;;;;;;5052414;28;20636;-81
2020/12/13 10:38:10;;;;;;;29.50;14.17;;;4.00;99.90;;;;;;5071934;28;20188;-80
2020/12/13 10:40:36;;;;;;;31.40;13.87;;;4.00;99.90;;;;;;5053336;28;20198;-79
2020/12/13 10:43:01;;;;;;;30.73;13.77;;;4.00;99.90;;;;;;5068140;28;20259;-80
2020/12/13 10:45:47;;;;;;;29.27;13.47;;;4.00;99.90;;;;;;5062529;28;20280;-81
2020/12/13 10:48:12;;;;;;;31.30;14.10;;;4.00;99.90;;;;;;5040370;28;20184;-81
2020/12/13 10:50:38;;;;;;;31.13;15.00;;;4.00;99.90;;;;;;5043780;28;20188;-80
2020/12/13 10:53:04;;;;;;;35.53;15.03;;;4.00;99.90;;;;;;5037344;28;20551;-80
2020/12/13 10:55:30;;;;;;;34.60;14.37;;;4.10;99.90;;;;;;5055611;28;20968;-80
2020/12/13 10:57:55;;;;;;;29.90;13.73;;;4.10;99.90;;;;;;5047892;28;20179;-82
2020/12/13 11:00:23;;;;;;;30.03;14.07;;;4.10;99.90;;;;;;5047374;28;20194;-80
2020/12/13 11:02:49;;;;;;;31.07;13.90;;;4.10;99.90;;;;;;5051554;28;20171;-80
2020/12/13 11:05:14;;;;;;;30.30;14.77;;;4.20;99.90;;;;;;5052103;28;20223;-81
2020/12/13 11:07:40;;;;;;;29.63;13.97;;;4.20;99.90;;;;;;5054211;28;20182;-81
2020/12/13 11:10:05;;;;;;;35.47;15.03;;;4.10;99.90;;;;;;5054336;28;20175;-81
2020/12/13 11:12:31;;;;;;;30.60;13.83;;;4.10;99.90;;;;;;5057132;28;20194;-81
2020/12/13 11:14:56;;;;;;;29.73;14.30;;;4.10;99.90;;;;;;5071132;28;20203;-81
2020/12/13 11:17:22;;;;;;;29.07;13.80;;;4.10;99.90;;;;;;5046868;28;20194;-81
2020/12/13 11:19:47;;;;;;;29.57;12.87;;;4.20;99.90;;;;;;5048310;28;20411;-81
2020/12/13 11:22:13;;;;;;;27.37;13.00;;;4.20;99.90;;;;;;5055985;28;20266;-80
2020/12/13 11:24:38;;;;;;;31.77;14.50;;;4.20;99.90;;;;;;5055908;28;20200;-80
2020/12/13 11:27:07;;;;;;;29.03;13.23;;;4.30;99.90;;;;;;5037618;28;20180;-81
2020/12/13 11:29:33;;;;;;;28.87;14.07;;;4.30;99.90;;;;;;5046973;28;20179;-79
2020/12/13 11:31:58;;;;;;;29.23;13.57;;;4.20;99.90;;;;;;5050890;28;20682;-81
2020/12/13 11:34:24;;;;;;;28.47;13.00;;;4.20;99.90;;;;;;5043376;28;20179;-80
2020/12/13 11:36:49;;;;;;;27.80;13.00;;;4.10;99.90;;;;;;5047218;28;20183;-80
2020/12/13 11:39:15;;;;;;;29.13;11.83;;;4.10;99.90;;;;;;5051440;28;20189;-82
2020/12/13 11:41:40;;;;;;;27.10;12.50;;;4.20;99.90;;;;;;5068639;28;20207;-81
2020/12/13 11:44:06;;;;;;;27.93;13.13;;;4.20;99.90;;;;;;5051790;28;20265;-81
2020/12/13 11:46:31;;;;;;;31.37;13.90;;;4.20;99.90;;;;;;5053998;28;20213;-82
2020/12/13 11:49:12;;;;;;;28.77;12.43;;;4.20;99.90;;;;;;5045352;28;20270;-82
2020/12/13 11:51:43;;;;;;;31.33;12.97;;;4.20;99.90;;;;;;5045022;28;20183;-81
2020/12/13 11:54:09;;;;;;;29.67;12.43;;;4.20;99.90;;;;;;5041309;28;20194;-83
2020/12/13 11:56:40;;;;;;;27.73;12.70;;;4.10;99.90;;;;;;5047869;28;20202;-82
2020/12/13 11:59:05;;;;;;;28.73;13.70;;;4.20;99.90;;;;;;5040009;28;20184;-82
2020/12/13 12:01:32;;;;;;;28.50;13.07;;;4.20;99.90;;;;;;5042552;28;20213;-82
2020/12/13 12:03:57;;;;;;;27.43;13.23;;;4.20;99.90;;;;;;5058692;28;20176;-80
2020/12/13 12:06:23;;;;;;;30.33;12.67;;;4.20;99.90;;;;;;5048801;28;20282;-81
2020/12/13 12:08:49;;;;;;;28.10;13.60;;;4.20;99.90;;;;;;5050901;28;20171;-82
2020/12/13 12:11:19;;;;;;;26.97;12.60;;;4.20;99.90;;;;;;5040062;28;20275;-80
2020/12/13 12:13:53;;;;;;;30.33;13.03;;;4.10;99.90;;;;;;5043523;28;20191;-81
2020/12/13 12:16:27;;;;;;;27.83;12.13;;;4.10;99.90;;;;;;5042377;28;20217;-82
2020/12/13 12:18:53;;;;;;;32.27;14.53;;;4.20;99.90;;;;;;5041773;28;20181;-81
2020/12/13 12:21:21;;;;;;;27.87;12.50;;;4.20;99.90;;;;;;5047765;28;20190;-80
2020/12/13 12:24:29;;;;;;;31.73;13.87;;;4.10;99.90;;;;;;5043312;28;20298;-82
2020/12/13 12:26:58;;;;;;;29.87;13.80;;;4.10;99.90;;;;;;5050920;28;20189;-79
2020/12/13 12:29:23;;;;;;;29.50;13.97;;;4.20;99.90;;;;;;5060532;28;20181;-79
2020/12/13 12:31:49;;;;;;;30.83;13.97;;;4.20;99.90;;;;;;5054348;28;20191;-80
2020/12/13 12:34:15;;;;;;;28.67;12.60;;;4.30;99.90;;;;;;5051107;28;20271;-79
2020/12/13 12:36:41;;;;;;;29.33;13.23;;;4.20;99.90;;;;;;5068249;28;20191;-82
2020/12/13 12:39:06;;;;;;;32.80;13.73;;;4.20;99.90;;;;;;5071756;28;20193;-78
2020/12/13 12:41:32;;;;;;;30.63;12.77;;;4.20;99.90;;;;;;5052087;28;20204;-78
2020/12/13 12:43:58;;;;;;;28.07;13.23;;;4.20;99.90;;;;;;5053553;28;21795;-78